Time;durP1;ratioP1;P1;durP2;ratioP2;P2;SDS_P1;SDS_P2;PMS_P1;PMS_P2;Temp;Humidity;BMP_temperature;BMP_pressure;BME280_temperature;BME280_humidity;BME280_pressure;Samples;Min_cycle;Max_cycle;Signal;HPM_P1;HPM_P2
2021/11/15 22:12:37;;;;;;;66.20;37.40;;;;;;;4.87;71.92;100253.31;102988;1306;109212;-70
2021/11/15 22:15:13;;;;;;;69.00;38.40;;;;;;;4.88;71.96;100255.39;102739;1318;97869;-72
2021/11/15 22:17:47;;;;;;;64.10;36.80;;;;;;;4.89;72.06;100255.00;102699;1319;96009;-70
2021/11/15 22:20:17;;;;;;;62.90;34.60;;;;;;;4.89;71.84;100251.13;102888;1316;111469;-70
2021/11/15 22:22:45;;;;;;;59.60;34.70;;;;;;;4.87;71.73;100252.06;102879;1318;98018;-71
2021/11/15 22:25:13;;;;;;;62.10;35.90;;;;;;;4.84;71.63;100254.27;102736;1318;107782;-72
2021/11/15 22:27:42;;;;;;;63.20;35.80;;;;;;;4.81;71.74;100257.34;102890;1316;97036;-72
2021/11/15 22:30:13;;;;;;;62.00;35.80;;;;;;;4.82;71.92;100255.94;102886;1318;97888;-71
2021/11/15 22:32:41;;;;;;;64.90;36.90;;;;;;;4.82;71.90;100252.22;102805;1318;111902;-72
2021/11/15 22:35:12;;;;;;;62.40;37.00;;;;;;;4.83;71.96;100245.70;102863;1318;97990;-70
2021/11/15 22:37:42;;;;;;;66.10;36.60;;;;;;;4.85;72.09;100246.52;104132;1316;107739;-71
2021/11/15 22:40:14;;;;;;;62.90;37.60;;;;;;;4.87;72.00;100243.46;102943;1316;97853;-71
2021/11/15 22:42:42;;;;;;;69.00;38.10;;;;;;;4.87;72.01;100243.13;102960;1316;97867;-71
2021/11/15 22:45:10;;;;;;;68.60;37.70;;;;;;;4.86;71.96;100246.66;102880;1317;111340;-72
2021/11/15 22:47:37;;;;;;;65.90;37.90;;;;;;;4.84;71.85;100248.98;102883;1317;97859;-71
2021/11/15 22:50:09;;;;;;;67.60;40.00;;;;;;;4.83;71.91;100250.79;102973;1318;107952;-71
2021/11/15 22:52:37;;;;;;;64.20;37.40;;;;;;;4.83;71.98;100250.97;102959;1316;97850;-71
2021/11/15 22:55:07;;;;;;;68.60;39.70;;;;;;;4.82;71.97;100251.16;102858;1318;98041;-72
2021/11/15 22:57:35;;;;;;;66.00;38.60;;;;;;;4.82;72.07;100247.11;102856;1317;109170;-70
2021/11/15 23:00:06;;;;;;;68.00;39.00;;;;;;;4.81;71.86;100248.73;102919;1319;96392;-72
2021/11/15 23:02:34;;;;;;;70.20;39.30;;;;;;;4.80;71.98;100244.91;102876;1316;107708;-71
2021/11/15 23:05:02;;;;;;;68.90;39.30;;;;;;;4.78;71.99;100242.49;103062;1315;97041;-73
2021/11/15 23:07:30;;;;;;;68.10;40.00;;;;;;;4.76;71.90;100245.89;103058;1317;95300;-73
2021/11/15 23:09:58;;;;;;;65.00;38.60;;;;;;;4.74;71.96;100241.02;102979;1319;111510;-72
2021/11/15 23:12:26;;;;;;;68.70;40.10;;;;;;;4.72;71.99;100234.77;103038;1319;97884;-72
2021/11/15 23:14:54;;;;;;;68.50;39.70;;;;;;;4.68;71.86;100235.42;103155;1320;107922;-73
2021/11/15 23:17:23;;;;;;;63.00;37.10;;;;;;;4.64;71.99;100237.11;103150;1320;97902;-72
2021/11/15 23:19:55;;;;;;;66.10;38.20;;;;;;;4.61;72.07;100232.64;103047;1316;97881;-71
2021/11/15 23:22:23;;;;;;;65.10;38.30;;;;;;;4.59;71.98;100234.77;103127;1321;111479;-72
2021/11/15 23:24:51;;;;;;;71.20;40.80;;;;;;;4.57;71.96;100235.20;103143;1316;97995;-74
2021/11/15 23:27:19;;;;;;;75.20;41.30;;;;;;;4.53;71.91;100231.79;103008;1322;108046;-74
2021/11/15 23:29:47;;;;;;;66.90;38.90;;;;;;;4.50;72.02;100233.27;102904;1316;97937;-72
2021/11/15 23:32:15;;;;;;;64.80;38.30;;;;;;;4.50;72.13;100236.98;103076;1316;97956;-73
2021/11/15 23:34:45;;;;;;;70.40;38.70;;;;;;;4.47;72.00;100232.15;103074;1322;111332;-71
2021/11/15 23:37:13;;;;;;;62.30;36.20;;;;;;;4.44;71.95;100231.73;103043;1319;98010;-72
2021/11/15 23:39:45;;;;;;;65.10;37.30;;;;;;;4.41;72.06;100235.66;102909;1319;107912;-72
2021/11/15 23:42:15;;;;;;;67.00;37.60;;;;;;;4.39;72.05;100234.67;102870;1317;98589;-71
2021/11/15 23:44:43;;;;;;;66.30;40.00;;;;;;;4.37;72.09;100235.42;102964;1319;98643;-71
2021/11/15 23:47:14;;;;;;;66.10;37.40;;;;;;;4.35;71.99;100233.38;102913;1322;111535;-72
2021/11/15 23:49:41;;;;;;;65.20;37.00;;;;;;;4.31;72.11;100232.23;103074;1322;97895;-71
2021/11/15 23:52:09;;;;;;;69.80;38.80;;;;;;;4.28;71.97;100233.38;102906;1316;107528;-71
2021/11/15 23:54:37;;;;;;;104.20;59.90;;;;;;;4.26;72.09;100230.83;103032;1316;98550;-72
2021/11/15 23:57:06;;;;;;;94.60;50.60;;;;;;;4.24;72.21;100232.27;103091;1319;96417;-71
2021/11/15 23:59:33;;;;;;;72.50;41.90;;;;;;;4.23;72.13;100232.48;102801;1319;111353;-71
